• Back
  •  
  • Position of Reservoir Gates
S.No.
No. of opened gates
Position of opening (In m)
Reporting Date
Reporting Time
Discharge in Cumecs
Discharge in Cusecs
Actual date and time of Gate opening
1
2
3
4
5
6
7
8
1 8 14/08/2012 9:54:08 AM 40
2 2 15/08/2012 6:38:16 PM 24
3 2 16/08/2012 8:12:26 AM 24
4 1 20/08/2012 9:04:13 AM 3
5 1 17/09/2012 9:52:01 AM 2
6 1 24/08/2012 8:46:31 AM 3
7 1 25/08/2012 8:41:40 AM 3
8 1 26/08/2012 8:19:58 AM 3
9 3 27/08/2012 7:45:01 AM 9
10 3 28/08/2012 8:36:51 AM 9
11 2 29/08/2012 8:14:16 AM 6
12 2 30/08/2012 8:39:56 AM 6
13 1 18/09/2012 8:22:17 AM 2
14 1 19/09/2012 7:57:01 AM 2
15 1 20/09/2012 9:53:11 AM 2
16 1 20/09/2012 9:57:20 AM 2
17 1 21/09/2012 8:51:02 AM 2
18 1 22/09/2012 7:31:28 AM 2
19 2 23/09/2012 7:57:00 AM 6
20 2 12/09/2012 8:07:45 AM 6
21 1 31/08/2012 8:01:07 AM 3
22 0 01/09/2012 1:32:35 PM 0
23 3 02/09/2012 7:58:23 AM 9
24 1 03/09/2012 7:53:51 AM 3
25 1 04/09/2012 7:42:23 AM 3
26 1 05/09/2012 8:22:54 AM 3
27 1 13/09/2012 8:37:41 AM 3
28 2 14/09/2012 8:50:00 AM 6
29 2 15/09/2012 9:44:26 AM 6
30 2 15/09/2012 9:44:26 AM 6
31 1 16/09/2012 8:18:18 AM 2
32 3 07/09/2012 3:31:22 PM 9
33 2 24/09/2012 7:12:53 AM 6
34 1 25/09/2012 8:18:57 AM 3
35 1 26/09/2012 8:09:44 AM 3
36 1 08/09/2012 8:11:01 AM 3
37 1 08/09/2012 8:11:01 AM 3
38 1 09/09/2012 8:29:18 AM 3
39 2 10/09/2012 8:18:31 AM 6
40 2 11/09/2012 8:20:32 AM 6
41 1 27/09/2012 8:25:46 AM 3
42 1 28/09/2012 10:19:15 AM 3
43 1 28/09/2012 10:23:34 AM 3
44 1 29/09/2012 8:12:20 AM 3
45 1 30/09/2012 7:44:34 AM 3
46 0 01/10/2012 7:47:31 AM 0
47 0 01/10/2012 7:52:39 AM 0
48 0 01/10/2012 7:52:39 AM 0
49 0 02/10/2012 8:19:20 AM 0
50 1 04/10/2012 7:43:09 AM 2
51 1 04/10/2012 7:43:09 AM 2
52 1 05/10/2012 7:57:29 AM 2
53 1 05/10/2012 8:04:00 AM 2
54 1 06/10/2012 9:43:08 AM 2
55 1 06/10/2012 9:43:08 AM 2
56 1 07/10/2012 8:05:08 AM 2
57 1 08/10/2012 7:40:10 AM 2
58 1 08/10/2012 7:40:10 AM 2
59 1 09/10/2012 7:16:46 AM 2
60 1 10/10/2012 8:13:39 AM 2
61 0 11/10/2012 8:58:33 AM 0
62 0 13/10/2012 9:58:54 AM 0
63 0 14/10/2012 8:20:28 AM 0
64 0 15/10/2012 8:10:54 AM 0
65 0 16/10/2012 8:03:02 AM 0
66 0 17/10/2012 7:52:18 AM 0
67 0 17/10/2012 8:48:13 AM 0
68 0 18/10/2012 8:53:37 AM 0
69 0 21/10/2012 8:07:53 AM 0
70 0 21/10/2012 8:07:53 AM 0
71 0 22/10/2012 10:54:59 AM 0
72 0 23/10/2012 9:03:45 AM 0
73 0 24/10/2012 8:41:59 AM 0
74 0 25/10/2012 8:09:53 AM 0
75 3 30/07/2015 8:59:17 AM 60
76 1 31/07/2015 10:28:54 AM 20
77 0 01/08/2015 8:36:54 AM 0
78 0 02/08/2015 9:44:54 AM 0
79 0 03/08/2015 8:28:54 AM 0
80 0 03/08/2015 8:41:42 AM 0
81 1 04/08/2015 8:12:54 AM 10
82 0 05/08/2015 8:40:58 AM 0
83 0 05/08/2015 8:56:58 AM 0
84 1 06/08/2015 8:45:42 AM 6
85 1 07/08/2015 8:16:58 AM 6
86 1 07/08/2015 8:24:58 AM 6
87 0 09/08/2015 9:36:58 AM 0
88 0 10/08/2015 8:28:58 AM 0
89 0 11/08/2015 1:07:20 PM 0
90 2 12/08/2015 7:50:25 AM 25
91 0 13/08/2015 11:12:58 AM 0
92 2 14/08/2015 8:14:23 AM 40
93 1 15/08/2015 8:05:57 AM 20
94 2 18/08/2015 9:31:58 AM 40
95 1 20/08/2015 7:51:58 AM 20
96 1 21/08/2015 8:31:58 AM 10
97 1 22/08/2015 9:09:47 AM 6
98 1 23/08/2015 5:11:37 PM 5
99 0 24/08/2015 8:39:38 AM 0
100 0 26/08/2015 7:53:16 AM 0
101 0 27/08/2015 10:06:20 AM 0
102 0 28/08/2015 7:26:22 AM 0
103 0 29/08/2015 8:14:22 AM 0
104 0 30/08/2015 7:50:22 AM 0
105 0 31/08/2015 7:10:22 AM 0
106 0 01/09/2015 7:22:22 AM 0
107 0 03/09/2015 7:17:40 AM 0
108 0 04/09/2015 7:05:40 AM 0
109 0 05/09/2015 8:25:40 AM 0
110 0 06/09/2015 8:29:40 AM 0
111 0 06/09/2015 8:41:40 AM 0
112 0 07/09/2015 6:29:40 AM 0
113 0 08/09/2015 7:47:03 AM 0
114 0 09/09/2015 6:59:03 AM 0
115 0 10/09/2015 7:43:03 AM 0
116 0 11/09/2015 7:11:04 AM 0
117 0 13/09/2015 10:47:04 AM 0
118 0 14/09/2015 7:23:04 AM 0
119 0 15/09/2015 7:23:04 AM 0
120 0 16/09/2015 7:31:04 AM 0
121 0 16/09/2015 9:11:04 AM 0
122 0 17/09/2015 7:11:04 AM 0
123 0 18/09/2015 7:03:04 AM 0
124 0 19/09/2015 7:55:04 AM 0
125 0 20/09/2015 9:03:04 AM 0
126 0 21/09/2015 6:43:04 AM 0
127 0 22/09/2015 7:03:04 AM 0
128 0 23/09/2015 7:11:04 AM 0
129 0 24/09/2015 7:12:02 AM 0
130 0 25/09/2015 8:00:02 AM 0
131 0 26/09/2015 7:28:02 AM 0
132 0 27/09/2015 8:36:07 AM 0
133 0 28/09/2015 7:12:07 AM 0
134 0 29/09/2015 7:20:08 AM 0
135 0 30/09/2015 7:16:08 AM 0
136 0 01/10/2015 8:40:08 AM 0
137 0 02/10/2015 7:40:08 AM 0
138 0 04/10/2015 7:17:28 AM 0
139 0 06/10/2015 7:09:28 AM 0
140 0 07/10/2015 7:29:28 AM 0
141 0 08/10/2015 7:09:28 AM 0
142 0 09/10/2015 9:45:28 AM 0
143 0 11/10/2015 7:53:28 AM 0
144 0 12/10/2015 8:13:56 AM 0
145 0 14/10/2015 7:21:56 AM 0
146 0 15/10/2015 7:09:56 AM 0
147 0 16/10/2015 7:14:00 AM 0
148 0 18/10/2015 7:38:00 AM 0
149 0 19/10/2015 7:18:28 AM 0
150 0 19/10/2015 7:22:28 AM 0
151 0 20/10/2015 7:38:28 AM 0
152 0 21/10/2015 7:38:28 AM 0
153 24 0.05 04/10/2021 4:00:00 PM 9.61 339.38
154 24 0.05 06/10/2021 8:00:00 AM 9.61 339.38 6.10.21 8am
155 24 0.05 07/10/2021 8:00:00 PM 9.61 339.38
156 0 05/08/2016 9:04:34 AM 0
157 0 06/08/2016 8:34:35 AM 0
158 0 07/08/2016 8:24:35 AM 0
159 5 08/08/2016 7:17:39 AM 150
160 0 08/08/2016 8:21:39 AM 0
161 3 10/08/2016 7:00:46 AM 150
162 2 12/08/2016 7:25:12 AM 60
163 2 13/08/2016 6:57:02 AM 60
164 0 16/08/2016 7:11:18 AM 0
165 1 19/08/2016 8:11:08 AM 18
166 16 21/08/2016 9:06:42 AM 1740
167 0 22/08/2016 8:29:53 AM 0
168 7 23/08/2016 7:25:49 AM 210
169 5 24/08/2016 8:18:41 AM 150
170 0 25/08/2016 6:55:56 AM 0
171 3 26/08/2016 8:03:19 AM 54
172 2 27/08/2016 7:23:19 AM 36
173 24 0.3 10/09/2021 4:00:00 AM 684 24155.46 10/09/2021
174 24 0.5 12/09/2021 8:00:00 AM 115 4061.22
175 2 28/08/2016 9:16:10 AM 48
176 4 29/08/2016 7:08:10 AM 72
177 1 30/08/2016 7:04:10 AM 30
178 3 01/09/2016 7:09:15 AM 90
179 3 02/09/2016 7:58:40 AM 90
180 24 0.5 13/09/2021 8:00:00 AM 115 4061.22 13.9.21 8am
181 6 0.05 14/09/2021 8:00:00 PM 6.42 226.72
182 2 0.1 17/09/2021 8:00:00 AM 4.28 151.15 17/09/2021
183 4 0.05 18/09/2021 12:00:00 PM 4.28 151.15
184 2 0.05 19/09/2021 8:00:00 AM 2.14 75.57
185 8 0.05 20/09/2021 4:00:00 PM 8.56 302.3
186 24 0.1 21/09/2021 8:00:00 PM 19.22 678.75
187 24 0.1 22/09/2021 8:00:00 PM 19.22 678.75
188 24 0.2 23/09/2021 8:00:00 AM 54.36 1919.72 23/09/2021
189 0 0 23/09/2021 12:00:00 PM 0 0 23.9.21 12pm
190 1 0.5 24/09/2021 12:00:00 PM 9.61 339.38 24.9.21 12pm
191 1 0.05 24/09/2021 8:00:00 AM 9.61 339.38 24/09/2021
192 24 0.3 26/09/2021 8:00:00 AM 99.85 3526.2
193 1 05/09/2016 7:44:43 AM 18
194 1 07/09/2016 8:41:13 AM 24
195 0 10/09/2016 7:21:14 AM 0
196 0 11/09/2016 6:29:14 AM 0
197 0 16/09/2016 7:03:30 AM 0
198 24 0.2 27/09/2021 8:00:00 AM 54.36 1919.72 27.9.21 8am
199 0 0 27/09/2021 12:00:00 PM 0 0 27.9.21 12pm
200 24 0.05 28/09/2021 8:00:00 AM 9.61 339.38 28/09/2021
201 1 27/09/2016 7:34:19 AM 10
202 2 06/10/2016 8:24:49 AM 60
203 24 3 27/07/2019 1:00:00 AM 2880 101707.2
204 10 0.5 27/07/2019 8:00:00 AM 200 7063
205 10 0.5 28/07/2019 12:01:00 AM 200 7063
206 10 0.5 28/07/2019 10:30:00 AM 200 7063
207 5 1 28/07/2019 1:00:00 PM 80 2825.2
208 5 1 29/07/2019 12:01:00 AM 80 2825.2
209 5 1 29/07/2019 8:45:00 AM 80 2825.2
210 5 1 29/07/2019 11:40:00 AM 35 1236.02
211 0 0 29/07/2019 4:15:00 PM 0 0 all gates are closed at 4:15pm 0n dated 29/7/2019
212 2 0.3 02/08/2019 12:01:00 PM 32 1130.08
213 2 0.3 02/08/2019 12:01:00 AM 32 1130.08
214 2 0.3 03/08/2019 12:01:00 AM 32 1130.08
215 2 0.3 03/08/2019 11:10:00 AM 24 847.56
216 4 0.3 03/08/2019 8:45:00 PM 112 3955.28
217 4 0.3 04/08/2019 12:01:00 AM 112 3955.28
218 6 0.5 04/08/2019 8:00:00 AM 234 8263.71
219 6 0.5 05/08/2019 12:01:00 AM 234 8263.71
220 2 0.3 04/08/2019 6:00:00 PM 55 1942.32
221 2 0.3 05/08/2019 8:00:00 AM 55 1942.32
222 6 0.3 05/08/2019 8:30:00 PM 165 5826.97
223 6 0.3 06/08/2019 12:01:00 AM 165 5826.97
224 20 1 08/08/2019 5:00:00 AM 1805 63743.57 each gate opening 1.0m,since7/8/2019 at7:0pm,Q=1805 cumec
225 4 0.3 06/08/2019 8:00:00 AM 110 3884.65
226 4 0.3 07/08/2019 12:01:00 AM 110 3884.65
227 16 0.5 07/08/2019 2:00:00 AM 742.7 26229.16
228 20 1 07/08/2019 7:00:00 PM 1805 63743.57
229 20 1 08/08/2019 12:01:00 AM 1805 63743.57
230 7 0.5 08/08/2019 7:00:00 AM 315 11124.22
231 9 0.5 08/08/2019 1:25:00 PM 459.9 16241.37
232 9 0.5 08/08/2019 2:00:00 PM 418 14761.67
233 9 0.5 09/08/2019 12:01:00 AM 418 14761.67
234 16 1 09/08/2019 8:00:00 AM 1444 50994.86
235 20 1.06 09/08/2019 6:20:00 PM 2000 70630
236 20 1.06 10/08/2019 12:23:00 AM 2000 70630
237 7 0.75 10/08/2019 8:00:00 AM 483 17057.15
238 0 0 10/08/2019 6:00:00 PM 0 0 all gates are closed
239 1 0.3 12/08/2019 10:30:00 AM 18 635.67
240 1 0.3 12/08/2019 10:31:00 AM 18 635.67
241 5 0.5 13/08/2019 12:03:00 AM 231 8157.76
242 2 0.5 13/08/2019 8:00:00 AM 92 3248.98
243 6 0.5 13/08/2019 8:30:00 PM 276 9746.94
244 0 0.5 14/08/2019 12:01:00 AM 276 9746.94
245 10 2 14/08/2019 5:00:00 AM 3312 116963.28 water level at 6:30am is 427.10m
246 18 1.5 14/08/2019 9:00:00 AM 2340 82637.1
247 19 1.5 14/08/2019 12:00:00 PM 2470 87228.05
248 20 1.5 14/08/2019 8:00:00 PM 2600 91819
249 20 1.5 15/08/2019 12:10:00 AM 2600 91819
250 18 0.5 15/08/2019 8:00:00 AM 828 29240.82
251 20 2 15/08/2019 8:00:00 AM 3320 117245.8
252 20 2.15 16/08/2019 8:15:00 AM 3510 123955.65
253 20 1.5 16/08/2019 6:00:00 PM 2500 88287.5
254 18 1 16/08/2019 8:30:00 PM 1620 57210.3
255 18 1 17/08/2019 12:17:00 AM 1620 57210.3
256 0 0 17/08/2019 11:00:00 AM 0 0 All gates are closed
257 2 0.3 19/08/2019 4:00:00 PM 57 2012.95
258 5 0.3 22/08/2019 12:01:00 AM 143 5050.05 gate opening since 21/8/2019 at4pm
259 2 0.3 20/08/2019 12:01:00 AM 57 2012.95
260 0 0 20/08/2019 9:00:00 AM 0 0 all gates are closed at 9:0am
261 5 0.3 20/08/2019 6:00:00 PM 143 5050.05
262 5 0.3 21/08/2019 8:00:00 AM 143 5050.05
263 3 0.3 22/08/2019 8:00:00 AM 85 3001.77
264 2 0.3 22/08/2019 4:00:00 PM 57 2012.95
265 2 0.3 23/08/2019 12:01:00 AM 57 2012.95
266 2 0.3 23/08/2019 8:00:00 AM 57 2012.95
267 2 0.3 24/08/2019 12:12:00 AM 57 2012.95
268 5 0.3 24/08/2019 9:40:00 AM 142.5 5032.39
269 5 0.3 25/08/2019 12:01:00 AM 142.5 5032.39
270 7 0.3 25/08/2019 7:00:00 AM 199.5 7045.34
271 7 0.3 26/08/2019 12:17:00 AM 199.5 7045.34
272 5 0.3 27/08/2019 12:05:00 AM 200 7063
273 9 0.3 27/08/2019 5:00:00 PM 252 8899.38
274 16 1 27/08/2019 9:00:00 PM 1460 51559.9
275 16 1 28/08/2019 12:01:00 AM 1460 51559.9
276 15 0.5 28/08/2019 12:00:00 PM 690 24367.35
277 14 0.5 28/08/2019 4:00:00 PM 630 22248.45
278 0 0 29/08/2019 9:00:00 AM 0 0 All gates are closed at 9 Am
279 14 0.5 29/08/2019 12:01:00 AM 630 22248.45
280 2 0.3 31/08/2019 8:30:00 AM 57 2012.95
281 4 0.3 31/08/2019 1:30:00 PM 114 4025.91
282 4 0.3 01/09/2019 12:00:00 PM 114 4025.91
283 4 0.3 02/09/2019 7:00:00 AM 114 4025.91
284 2 0.3 04/09/2019 8:00:00 AM 57 2012.95
285 6 0.3 02/09/2019 9:28:00 AM 171 6038.86
286 8 0.3 01/09/2019 10:00:00 PM 224 7910.56
287 8 0.3 02/09/2019 10:00:00 AM 224 7910.56 gates open on 1st sept at 10pm.
288 6 0.3 03/09/2019 12:05:00 AM 224 7910.56 gate opening since 2/9/2019
289 5 0.3 05/09/2019 11:55:00 AM 140 4944.1
290 8 0.3 05/09/2019 4:00:00 PM 228 8051.82
291 8 0.5 05/09/2019 9:00:00 PM 368 12995.92
292 8 0.3 06/09/2019 12:01:00 AM 228 8051.82 gate opening since 5/9/2019at4:0pm
293 8 0.3 06/09/2019 12:20:00 PM 224 7910.56
294 8 0.8 06/09/2019 6:00:00 PM 224 7910.56
295 8 0.8 07/09/2019 12:03:00 AM 224 7910.56
296 5 0.3 07/09/2019 12:20:00 PM 140 4944.1
297 3 0.3 07/09/2019 8:00:00 PM 85.5 3019.43
298 5 0.3 08/09/2019 8:00:00 AM 140 4944.1
299 5 0.3 08/09/2019 7:00:00 PM 228 8051.82
300 5 0.3 09/09/2019 3:00:00 AM 228 8051.82
301 8 0.5 09/09/2019 12:15:00 PM 368 12995.92
302 10 0.5 09/09/2019 4:00:00 PM 475 16774.63
303 14 0.5 10/09/2019 8:00:00 AM 644 22742.86
304 7 0.3 10/09/2019 2:00:00 PM 196 6921.74
305 7 0.3 11/09/2019 6:00:00 AM 196 6921.74
306 4 0.3 11/09/2019 8:00:00 AM 112 3955.28
307 8 0.4 12/09/2019 8:00:00 PM 250 8828.75
308 20 1.5 13/09/2019 10:00:00 AM 2600 91819
309 20 2.25 14/09/2019 12:01:00 AM 3700 130665.5
310 8 0.4 13/09/2019 3:35:00 AM 250 8828.75
311 20 2.25 13/09/2019 3:30:00 PM 3700 130665.5
312 20 2 14/09/2019 12:00:00 PM 3320 117245.8
313 21 3 14/09/2019 4:00:00 PM 4725 166863.38
314 14 1 15/09/2019 11:40:00 AM 1260 44496.9
315 14 1 16/09/2019 12:01:00 AM 1260 44496.9
316 6 0.3 16/09/2019 8:00:00 AM 168 5932.92
317 6 0.5 16/09/2019 8:00:00 PM 276 9746.94
318 6 0.5 17/09/2019 12:01:00 AM 276 9746.94
319 6 0.5 18/09/2019 12:01:00 AM 168 5932.92
320 0 0 18/09/2019 6:00:00 AM 0 0
321 2 0.3 20/09/2019 9:00:00 PM 57 2012.95
322 0 0 21/09/2019 9:00:00 AM 0 0 All Gates are closed.
323 10 0.5 22/09/2019 10:00:00 AM 460 16244.9
324 4 0.3 28/09/2019 4:05:00 AM 128 4520.32
325 16 0.75 23/09/2019 1:20:00 AM 1120 39552.8
326 5 0.5 23/09/2019 8:00:00 AM 230 8122.45
327 14 0.5 22/09/2019 4:00:00 PM 665 23484.47
328 16 0.75 22/09/2019 7:00:00 PM 1120 39552.8
329 9 1 28/09/2019 9:20:00 AM 810 28605.15
330 5 0.5 24/09/2019 12:01:00 AM 230 8122.45
331 2 0.3 24/09/2019 8:00:00 AM 56 1977.64
332 4 0.3 27/09/2019 8:00:00 PM 128 4520.32
333 13 1 28/09/2019 4:00:00 PM 1235 43614.02
334 6 1 28/09/2019 8:30:00 PM 90.6 3199.54
335 3 0.5 29/09/2019 11:00:00 AM 138 4873.47
336 3 0.5 30/09/2019 12:01:00 AM 138 4873.47
337 9 0.5 01/10/2019 12:00:00 PM 414 14620.41
338 3 0.3 30/09/2019 9:40:00 AM 84 2966.46
339 1 0.4 30/09/2019 4:00:00 PM 38 1341.97
340 3 0.3 30/09/2019 4:00:00 PM 84 2966.46
341 8 0.5 01/10/2019 8:00:00 AM 368 12995.92
342 16 1 01/10/2019 4:00:00 PM 1440 50853.6
343 3 0.5 02/10/2019 9:00:00 AM 138 4873.47
344 3 0.5 02/10/2019 9:00:00 AM 138 4873.47
345 3 0.5 03/10/2019 4:00:00 PM 140 4944.1
346 1 0.3 02/10/2019 4:00:00 PM 28 988.82
347 5 0.5 03/10/2019 8:00:00 AM 230 8122.45
348 3 0.5 03/10/2019 4:00:00 PM 140 4944.1
349 3 0.5 04/10/2019 12:01:00 AM 140 4944.1
350 1 0.5 11/10/2019 6:30:00 PM 47 1659.8
351 1 0.5 13/10/2019 9:00:00 PM 47 1659.8
352 1 0.5 12/10/2019 4:00:00 PM 47 1659.8
353 1 0.5 13/10/2019 10:00:00 AM 47 1659.8
354 1 0.5 09/10/2019 8:00:00 AM 46 1624.49
355 1 0.5 09/10/2019 8:00:00 AM 46 1624.49
356 1 0.5 10/10/2019 8:00:00 AM 46 1624.49
357 2 0.5 10/10/2019 11:30:00 AM 92 3248.98
Powered by © Water Resources Department (MP). All Rights Reserved.